Terminal Aerodrome Forecast
Issued by NWS Duluth, MN

Home | Current Version | Previous Version | Text Only | Print | Product List | Glossary On
Versions: 1 2 3 4 5 6 7 8 9 10 11 12 13 14 15 16 17 18 19 20 21 22
000
FTUS43 KDLH 242000 AAA
TAFINL
TAF AMD
KINL 242000Z 2420/2518 24011G17KT P6SM SCT100
     FM250100 27011KT P6SM SCT100
      TEMPO 2502/2504 28014G24KT
     FM250500 28012KT P6SM FEW150=

USA.gov is the U.S. government's official web portal to all federal, state and local government web resources and services.